Entiat, WA

2:02 AM PDT on August 21, 2014 (GMT -0700)
The Highlands | Change Station
CLOSE
Current Station
Personal Weather Station
Location: Chelan, WA
Elevation: 1610 ft
Nearby Weather Stations
Active Advisory: Flash Flood Watch

Elev 1610 ft 47.86 °N, 120.04 °W | Updated 2 minutes ago

Clear
Clear
69.3 °F
Feels Like 69.3 °F
N
2.0
Wind Variable Wind from ENE
Gusts 4.0 mph

Today
High -- | Low -- °F
--% Chance of Precip.
Yesterday
High -- | Low -- °F
Precip. -- in
6:04 AM 8:02 PM
Waning Crescent, 15% visible
Pressure 29.87 in
Visibility 10.0 miles
Clouds Clear
Dew Point 50 °F
Humidity 51%
Rainfall 0.00 in
Snow Depth Not available.
UV 0 out of 12
Pollen 4.20 out of 12
Air Quality Not available.
Flu Activity Not available.
METAR KEAT 210855Z AUTO 33011KT 10SM CLR 19/08 A2990 RMK AO2 SLP115 T01940078 51009

More Conditions Fewer Conditions

Pressure 29.87 in
Visibility 10.0 miles
Clouds Clear
Dew Point 50 °F
Humidity 51%
Rainfall 0.00 in
Snow Depth Not available.
UV 0 out of 12
Pollen 4.20 out of 12
Air Quality Not available.
Flu Activity Not available.
METAR KEAT 210855Z AUTO 33011KT 10SM CLR 19/08 A2990 RMK AO2 SLP115 T01940078 51009

More Conditions Fewer Conditions

10-Day Weather Forecast

Almanac

Astronomy

Aug. 21, 2014 Rise Set
Actual Time 6:04 AM PDT 8:02 PM PDT
Civil Twilight 5:31 AM PDT 8:35 PM PDT
Nautical Twilight 4:50 AM PDT 9:16 PM PDT
Astronomical Twilight 4:05 AM PDT 10:01 PM PDT
Moon 2:32 AM PDT 5:40 PM PDT
Length of Visible Light 15h 04m
Length of Day
13h 57m
Tomorrow will be 3m 11s shorter.
Waning Crescent, 15% of the Moon is Illuminated
Today
Waning Crescent
Aug 25
New
Sep 2
First Quarter
Sep 8
Full
Sep 15
Last Quarter

Today's Extremes

State Highs State Lows

Community

WunderPhotos

Upload Photos

1,745,864 photos uploaded!

Nearby

Snow Depth

Station Depth Elevation
Blewett Pass 0 in 4270 ft
Grouse Camp 0 in 5380 ft
Trough 1 in 5300 ft
Stevens Pass 0 in 4070 ft
Sasse Ridge 0 in 4200 ft

Earthquake Activity

City Distance Mag. Time & Date
No recent earthquake activity has been reported nearby.
Minimum magnitude displayed is 2.5.

Coastal Water Temperatures

Place Temperature
No Stations Reporting

Nearby Weather Stations